createdAt,value
2019-02-04T00:01:18.607Z,100231.13
2019-02-04T00:03:25.762Z,100229.50
2019-02-04T00:05:32.839Z,100238.03
2019-02-04T00:07:40.018Z,100248.66
2019-02-04T00:09:47.120Z,100247.39
2019-02-04T00:11:54.218Z,100233.06
2019-02-04T00:14:01.417Z,100233.06
2019-02-04T00:16:09.129Z,100239.19
2019-02-04T00:18:16.214Z,100242.27
2019-02-04T00:20:23.242Z,100240.16
2019-02-04T00:22:30.272Z,100247.84
2019-02-04T00:24:37.396Z,100257.91
2019-02-04T00:26:51.377Z,100260.30
2019-02-04T00:28:53.361Z,100268.67
2019-02-04T00:31:00.760Z,100273.19
2019-02-04T00:33:07.871Z,100278.29
2019-02-04T00:35:15.029Z,100276.61
2019-02-04T00:37:22.256Z,100279.78
2019-02-04T00:39:29.343Z,100277.75
2019-02-04T00:41:36.408Z,100287.84
2019-02-04T00:43:43.536Z,100292.06
2019-02-04T00:45:51.283Z,100291.22
2019-02-04T00:47:58.735Z,100296.59
2019-02-04T00:50:06.243Z,100293.38
2019-02-04T00:52:13.341Z,100301.28
2019-02-04T00:54:20.427Z,100297.85
2019-02-04T00:56:27.451Z,100295.44
2019-02-04T00:58:34.532Z,100291.49
2019-02-04T01:00:41.667Z,100286.78
2019-02-04T01:02:48.738Z,100287.31
2019-02-04T01:04:55.821Z,100285.03
2019-02-04T01:07:02.862Z,100279.16
2019-02-04T01:09:11.354Z,100276.97
2019-02-04T01:11:18.385Z,100280.03
2019-02-04T01:13:25.600Z,100276.55
2019-02-04T01:15:32.732Z,100281.33
2019-02-04T01:17:39.831Z,100276.67
2019-02-04T01:19:46.876Z,100288.61
2019-02-04T01:21:54.024Z,100302.19
2019-02-04T01:24:01.204Z,100310.73
2019-02-04T01:26:08.224Z,100315.66
2019-02-04T01:28:15.621Z,100332.00
2019-02-04T01:30:23.389Z,100335.30
2019-02-04T01:32:31.411Z,100341.80
2019-02-04T01:34:38.541Z,100338.93
2019-02-04T01:36:45.659Z,100334.47
2019-02-04T01:38:52.724Z,100339.89
2019-02-04T01:40:59.819Z,100356.09
2019-02-04T01:43:07.355Z,100359.90
2019-02-04T01:45:14.378Z,100358.61
2019-02-04T01:47:21.480Z,100357.33
2019-02-04T01:49:28.635Z,100357.07
2019-02-04T01:51:35.626Z,100352.94
2019-02-04T01:53:42.847Z,100351.88
2019-02-04T01:55:49.888Z,100350.43
2019-02-04T01:57:58.444Z,100360.20
2019-02-04T02:00:07.488Z,100368.27
2019-02-04T02:02:14.651Z,100382.47
2019-02-04T02:04:21.792Z,100382.50
2019-02-04T02:06:29.113Z,100373.77
2019-02-04T02:08:36.563Z,100375.23
2019-02-04T02:10:43.779Z,100376.00
2019-02-04T02:12:51.326Z,100363.63
2019-02-04T02:14:58.434Z,100365.66
2019-02-04T02:17:05.480Z,100364.35
2019-02-04T02:19:12.511Z,100361.92
2019-02-04T02:21:19.676Z,100368.80
2019-02-04T02:23:26.828Z,100365.98
2019-02-04T02:25:34.888Z,100375.16
2019-02-04T02:27:42.582Z,100377.16
2019-02-04T02:29:49.608Z,100382.75
2019-02-04T02:31:56.679Z,100380.29
2019-02-04T02:34:03.885Z,100388.65
2019-02-04T02:36:11.347Z,100395.45
2019-02-04T02:38:18.434Z,100394.91
2019-02-04T02:40:35.983Z,100405.19
2019-02-04T02:42:43.009Z,100414.82
2019-02-04T02:44:50.104Z,100421.02
2019-02-04T02:46:57.233Z,100433.64
2019-02-04T02:49:04.206Z,100436.79
2019-02-04T02:51:11.299Z,100442.35
2019-02-04T02:53:18.292Z,100441.98
2019-02-04T02:55:25.331Z,100453.34
2019-02-04T02:57:32.807Z,100461.92
2019-02-04T02:59:39.800Z,100465.55
2019-02-04T03:01:46.796Z,100469.72
2019-02-04T03:03:54.003Z,100472.05
2019-02-04T03:06:01.084Z,100483.61
2019-02-04T03:08:08.116Z,100494.59
2019-02-04T03:10:22.139Z,100493.80
2019-02-04T03:12:29.459Z,100508.50
2019-02-04T03:14:36.528Z,100516.49
2019-02-04T03:16:43.597Z,100514.59
2019-02-04T03:18:50.657Z,100518.05
2019-02-04T03:20:57.654Z,100523.70
2019-02-04T03:23:04.770Z,100531.87
2019-02-04T03:25:12.416Z,100538.30
2019-02-04T03:27:19.911Z,100544.00
2019-02-04T03:29:27.049Z,100551.41
2019-02-04T03:31:34.135Z,100558.77
2019-02-04T03:33:41.178Z,100560.84
2019-02-04T03:35:48.284Z,100569.92
2019-02-04T03:37:55.428Z,100575.02
2019-02-04T03:40:02.399Z,100576.63
2019-02-04T03:42:09.453Z,100585.86
2019-02-04T03:44:16.454Z,100584.95
2019-02-04T03:46:23.532Z,100593.70
2019-02-04T03:48:30.669Z,100592.41
2019-02-04T03:50:37.803Z,100604.25
2019-02-04T03:52:44.932Z,100613.25
2019-02-04T03:54:52.022Z,100617.64
2019-02-04T03:56:59.098Z,100624.03
2019-02-04T03:59:06.287Z,100634.44
2019-02-04T04:01:13.418Z,100637.02
2019-02-04T04:03:20.602Z,100645.81
2019-02-04T04:05:27.664Z,100636.28
2019-02-04T04:07:34.810Z,100640.23
2019-02-04T04:09:42.305Z,100650.63
2019-02-04T04:11:49.522Z,100645.77
2019-02-04T04:13:56.712Z,100655.41
2019-02-04T04:16:03.811Z,100654.50
2019-02-04T04:18:15.861Z,100667.04
2019-02-04T04:20:19.797Z,100664.89
2019-02-04T04:22:26.984Z,100675.38
2019-02-04T04:24:34.696Z,100674.87
2019-02-04T04:26:41.760Z,100687.91
2019-02-04T04:28:48.862Z,100678.73
2019-02-04T04:30:55.942Z,100694.04
2019-02-04T04:33:02.946Z,100705.68
2019-02-04T04:35:10.069Z,100705.20
2019-02-04T04:37:17.151Z,100708.24
2019-02-04T04:39:24.643Z,100706.53
2019-02-04T04:41:31.757Z,100720.41
2019-02-04T04:43:38.851Z,100726.05
2019-02-04T04:45:46.078Z,100729.05
2019-02-04T04:47:53.139Z,100744.67
2019-02-04T04:50:00.436Z,100750.68
2019-02-04T04:52:07.664Z,100751.98
2019-02-04T04:54:14.693Z,100757.69
2019-02-04T04:56:21.749Z,100761.99
2019-02-04T04:58:28.951Z,100771.56
2019-02-04T05:00:36.188Z,100784.54
2019-02-04T05:02:43.284Z,100788.84
2019-02-04T05:04:50.298Z,100797.08
2019-02-04T05:07:00.532Z,100805.31
2019-02-04T05:09:08.608Z,100809.61
2019-02-04T05:11:15.658Z,100818.70
2019-02-04T05:13:22.810Z,100828.27
2019-02-04T05:15:30.105Z,100831.27
2019-02-04T05:17:37.170Z,100842.54
2019-02-04T05:19:44.235Z,100852.04
2019-02-04T05:21:51.642Z,100853.78
2019-02-04T05:23:58.790Z,100869.82
2019-02-04T05:26:06.062Z,100871.98
2019-02-04T05:28:14.303Z,100877.14
2019-02-04T05:30:23.232Z,100884.09
2019-02-04T05:32:30.407Z,100890.56
2019-02-04T05:34:38.561Z,100894.04
2019-02-04T05:36:45.690Z,100892.72
2019-02-04T05:38:52.872Z,100903.96
2019-02-04T05:41:01.057Z,100904.83
2019-02-04T05:43:08.260Z,100912.14
2019-02-04T05:45:17.756Z,100912.19
2019-02-04T05:47:24.889Z,100923.03
2019-02-04T05:49:31.873Z,100936.41
2019-02-04T05:51:39.451Z,100945.50
2019-02-04T05:53:46.809Z,100952.45
2019-02-04T05:55:53.863Z,100967.12
2019-02-04T05:58:01.146Z,100966.70
2019-02-04T06:00:10.600Z,100978.84
2019-02-04T06:02:17.684Z,100989.21
2019-02-04T06:04:25.035Z,100995.28
2019-02-04T06:06:32.351Z,100996.58
2019-02-04T06:08:39.566Z,101011.28
2019-02-04T06:10:46.777Z,101013.88
2019-02-04T06:12:54.101Z,101019.94
2019-02-04T06:15:01.441Z,101027.31
2019-02-04T06:17:08.826Z,101031.17
2019-02-04T06:19:15.932Z,101039.84
2019-02-04T06:21:23.797Z,101051.08
2019-02-04T06:23:31.389Z,101058.88
2019-02-04T06:25:39.096Z,101064.95
2019-02-04T06:27:46.241Z,101074.02
2019-02-04T06:29:53.359Z,101087.44
2019-02-04T06:32:00.484Z,101093.05
2019-02-04T06:34:07.662Z,101100.43
2019-02-04T06:36:15.136Z,101101.28
2019-02-04T06:38:22.462Z,101111.23
2019-02-04T06:40:29.580Z,101114.28
2019-02-04T06:42:36.986Z,101125.94
2019-02-04T06:44:44.156Z,101122.05
2019-02-04T06:46:51.387Z,101125.95
2019-02-04T06:48:58.781Z,101134.18
2019-02-04T06:51:06.187Z,101144.55
2019-02-04T06:53:14.464Z,101154.95
2019-02-04T06:55:31.240Z,101148.89
2019-02-04T06:57:38.637Z,101159.71
2019-02-04T06:59:45.947Z,101164.47
2019-02-04T07:01:53.054Z,101167.05
2019-02-04T07:04:00.222Z,101177.45
2019-02-04T07:06:07.779Z,101185.22
2019-02-04T07:08:14.853Z,101198.64
2019-02-04T07:10:24.085Z,101199.95
2019-02-04T07:12:31.515Z,101214.23
2019-02-04T07:14:38.832Z,101219.41
2019-02-04T07:16:46.390Z,101229.80
2019-02-04T07:18:53.727Z,101228.95
2019-02-04T07:21:01.065Z,101222.90
2019-02-04T07:23:08.186Z,101242.36
2019-02-04T07:25:15.331Z,101239.31
2019-02-04T07:27:22.718Z,101243.67
2019-02-04T07:29:30.269Z,101252.75
2019-02-04T07:31:37.362Z,101248.41
2019-02-04T07:33:44.566Z,101256.63
2019-02-04T07:35:51.638Z,101257.48
2019-02-04T07:37:58.783Z,101264.86
2019-02-04T07:40:08.465Z,101277.86
2019-02-04T07:42:15.902Z,101266.61
2019-02-04T07:44:23.070Z,101275.67
2019-02-04T07:46:30.295Z,101276.11
2019-02-04T07:48:37.841Z,101279.56
2019-02-04T07:50:44.966Z,101289.97
2019-02-04T07:52:52.027Z,101292.98
2019-02-04T07:54:59.312Z,101300.34
2019-02-04T07:57:06.545Z,101294.29
2019-02-04T07:59:14.343Z,101315.52
2019-02-04T08:01:21.550Z,101322.88
2019-02-04T08:03:29.185Z,101325.05
2019-02-04T08:05:36.449Z,101326.33
2019-02-04T08:07:44.400Z,101337.17
2019-02-04T08:09:52.922Z,101338.00
2019-02-04T08:12:00.366Z,101350.58
2019-02-04T08:14:07.755Z,101362.27
2019-02-04T08:16:14.957Z,101367.02
2019-02-04T08:18:22.593Z,101378.32
2019-02-04T08:20:29.798Z,101384.77
2019-02-04T08:22:36.906Z,101389.98
2019-02-04T08:24:44.017Z,101394.33
2019-02-04T08:26:51.275Z,101396.04
2019-02-04T08:28:58.939Z,101407.31
2019-02-04T08:31:06.347Z,101413.80
2019-02-04T08:33:13.507Z,101418.12
2019-02-04T08:35:20.650Z,101414.23
2019-02-04T08:37:28.959Z,101419.00
2019-02-04T08:39:36.386Z,101424.65
2019-02-04T08:41:43.682Z,101427.67
2019-02-04T08:43:51.292Z,101429.41
2019-02-04T08:45:59.147Z,101437.63
2019-02-04T08:48:06.831Z,101443.70
2019-02-04T08:50:16.869Z,101438.95
2019-02-04T08:52:24.013Z,101439.38
2019-02-04T08:54:31.208Z,101459.74
2019-02-04T08:56:38.297Z,101466.23
2019-02-04T08:58:45.388Z,101475.78
2019-02-04T09:00:52.528Z,101478.78
2019-02-04T09:02:59.945Z,101493.52
2019-02-04T09:05:07.737Z,101498.73
2019-02-04T09:07:14.976Z,101495.27
2019-02-04T09:09:22.209Z,101510.42
2019-02-04T09:11:29.579Z,101504.78
2019-02-04T09:13:37.286Z,101514.75
2019-02-04T09:15:44.816Z,101519.10
2019-02-04T09:17:51.970Z,101513.91
2019-02-04T09:20:09.743Z,101522.16
2019-02-04T09:22:11.518Z,101522.56
2019-02-04T09:24:18.685Z,101522.13
2019-02-04T09:26:25.796Z,101519.55
2019-02-04T09:28:32.978Z,101526.48
2019-02-04T09:30:40.127Z,101529.08
2019-02-04T09:32:47.270Z,101532.13
2019-02-04T09:34:54.704Z,101541.25
2019-02-04T09:37:01.857Z,101543.40
2019-02-04T09:39:11.411Z,101558.54
2019-02-04T09:41:18.801Z,101554.66
2019-02-04T09:43:25.962Z,101562.02
2019-02-04T09:45:33.092Z,101562.42
2019-02-04T09:47:40.251Z,101571.11
2019-02-04T09:49:47.438Z,101561.12
2019-02-04T09:51:54.625Z,101571.97
2019-02-04T09:54:01.712Z,101575.88
2019-02-04T09:56:09.095Z,101581.47
2019-02-04T09:58:16.529Z,101587.13
2019-02-04T10:00:26.839Z,101589.32
2019-02-04T10:02:34.002Z,101600.16
2019-02-04T10:04:41.202Z,101600.16
2019-02-04T10:06:48.260Z,101609.25
2019-02-04T10:08:55.622Z,101605.81
2019-02-04T10:11:02.767Z,101601.88
2019-02-04T10:13:10.027Z,101600.17
2019-02-04T10:15:21.295Z,101605.83
2019-02-04T10:17:28.548Z,101600.16
2019-02-04T10:19:35.793Z,101607.11
2019-02-04T10:21:42.984Z,101612.33
2019-02-04T10:23:50.362Z,101627.91
2019-02-04T10:25:59.083Z,101640.06
2019-02-04T10:28:09.000Z,101650.44
2019-02-04T10:30:19.683Z,101662.14
2019-02-04T10:32:27.670Z,101668.62
2019-02-04T10:34:35.089Z,101672.54
2019-02-04T10:36:42.921Z,101684.21
2019-02-04T10:38:50.864Z,101682.94
2019-02-04T10:40:58.328Z,101692.89
2019-02-04T10:43:05.753Z,101695.92
2019-02-04T10:45:13.439Z,101684.23
2019-02-04T10:47:20.655Z,101692.91
2019-02-04T10:49:27.902Z,101690.70
2019-02-04T10:51:35.416Z,101699.34
2019-02-04T10:53:42.838Z,101705.43
2019-02-04T10:55:50.364Z,101712.36
2019-02-04T10:57:57.681Z,101716.28
2019-02-04T11:00:05.579Z,101721.85
2019-02-04T11:02:12.893Z,101721.02
2019-02-04T11:04:20.200Z,101724.08
2019-02-04T11:06:27.540Z,101727.52
2019-02-04T11:08:34.771Z,101733.59
2019-02-04T11:10:42.259Z,101731.39
2019-02-04T11:12:49.629Z,101729.64
2019-02-04T11:14:56.963Z,101731.02
2019-02-04T11:17:04.580Z,101742.64
2019-02-04T11:19:12.044Z,101758.66
2019-02-04T11:21:19.472Z,101758.23
2019-02-04T11:23:29.067Z,101762.97
2019-02-04T11:25:36.090Z,101767.33
2019-02-04T11:27:43.389Z,101782.45
2019-02-04T11:29:50.731Z,101788.95
2019-02-04T11:31:59.187Z,101791.11
2019-02-04T11:34:06.412Z,101789.37
2019-02-04T11:36:13.665Z,101788.09
2019-02-04T11:38:20.966Z,101787.19
2019-02-04T11:40:35.177Z,101789.39
2019-02-04T11:42:42.449Z,101798.05
2019-02-04T11:44:49.918Z,101794.56
2019-02-04T11:46:57.354Z,101799.77
2019-02-04T11:49:04.865Z,101806.33
2019-02-04T11:51:12.031Z,101805.34
2019-02-04T11:53:19.268Z,101799.76
2019-02-04T11:55:27.398Z,101796.33
2019-02-04T11:57:35.441Z,101801.48
2019-02-04T11:59:43.134Z,101799.29
2019-02-04T12:01:50.772Z,101802.77
2019-02-04T12:03:58.243Z,101801.47
2019-02-04T12:06:05.515Z,101808.86
2019-02-04T12:08:14.456Z,101813.17
2019-02-04T12:10:53.371Z,101812.30
2019-02-04T12:13:00.527Z,101817.13
2019-02-04T12:15:12.369Z,101830.12
2019-02-04T12:17:19.482Z,101834.44
2019-02-04T12:19:26.750Z,101838.33
2019-02-04T12:21:34.103Z,101836.63
2019-02-04T12:23:41.651Z,101843.95
2019-02-04T12:25:48.801Z,101847.78
2019-02-04T12:27:56.227Z,101849.98
2019-02-04T12:30:03.849Z,101842.67
2019-02-04T12:32:11.735Z,101852.16
2019-02-04T12:34:19.433Z,101856.47
2019-02-04T12:36:27.065Z,101852.56
2019-02-04T12:38:34.576Z,101856.87
2019-02-04T12:40:42.010Z,101853.92
2019-02-04T12:42:49.286Z,101854.77
2019-02-04T12:44:57.061Z,101861.66
2019-02-04T12:47:05.055Z,101861.22
2019-02-04T12:49:12.275Z,101855.62
2019-02-04T12:51:19.382Z,101858.66
2019-02-04T12:53:26.529Z,101866.89
2019-02-04T12:55:33.757Z,101868.23
2019-02-04T12:57:40.865Z,101872.95
2019-02-04T12:59:47.909Z,101865.16
2019-02-04T13:01:55.110Z,101872.09
2019-02-04T13:04:02.103Z,101874.75
2019-02-04T13:06:11.381Z,101876.89
2019-02-04T13:08:18.558Z,101882.11
2019-02-04T13:10:25.816Z,101882.98
2019-02-04T13:12:33.367Z,101889.02
2019-02-04T13:14:40.744Z,101885.13
2019-02-04T13:16:47.796Z,101888.55
2019-02-04T13:18:54.937Z,101889.41
2019-02-04T13:21:47.773Z,101883.34
2019-02-04T13:23:56.639Z,101894.61
2019-02-04T13:26:04.019Z,101878.97
2019-02-04T13:28:42.764Z,101886.38
2019-02-04T13:30:57.919Z,101892.82
2019-02-04T13:33:04.937Z,101887.70
2019-02-04T13:35:12.830Z,101889.34
2019-02-04T13:37:20.173Z,101892.77
2019-02-04T13:39:27.476Z,101896.33
2019-02-04T13:41:34.897Z,101893.27
2019-02-04T13:43:43.358Z,101894.55
2019-02-04T13:45:50.677Z,101899.81
2019-02-04T13:47:58.060Z,101899.81
2019-02-04T13:50:06.135Z,101899.38
2019-02-04T13:52:15.365Z,101901.58
2019-02-04T13:54:22.384Z,101903.66
2019-02-04T13:56:29.542Z,101909.31
2019-02-04T13:58:36.934Z,101915.45
2019-02-04T14:00:44.026Z,101911.87
2019-02-04T14:02:58.975Z,101917.07
2019-02-04T14:04:59.892Z,101923.12
2019-02-04T14:07:07.066Z,101931.77
2019-02-04T14:09:19.985Z,101926.98
2019-02-04T14:11:27.183Z,101930.09
2019-02-04T14:13:34.345Z,101937.81
2019-02-04T14:15:42.503Z,101944.30
2019-02-04T14:17:49.553Z,101948.20
2019-02-04T14:19:56.670Z,101943.03
2019-02-04T14:22:09.375Z,101937.44
2019-02-04T14:24:12.625Z,101939.95
2019-02-04T14:26:19.814Z,101946.44
2019-02-04T14:28:26.986Z,101946.97
2019-02-04T14:30:36.479Z,101944.72
2019-02-04T14:32:43.673Z,101954.67
2019-02-04T14:34:51.413Z,101952.98
2019-02-04T14:36:58.640Z,101957.78
2019-02-04T14:39:07.381Z,101954.70
2019-02-04T14:41:14.635Z,101956.08
2019-02-04T14:43:41.292Z,101954.28
2019-02-04T14:46:33.796Z,101950.34
2019-02-04T14:49:52.694Z,101949.09
2019-02-04T14:52:28.382Z,101950.34
2019-02-04T14:55:51.209Z,101950.80
2019-02-04T14:58:37.615Z,101962.42
2019-02-04T15:01:39.681Z,101962.92
2019-02-04T15:04:45.051Z,101963.88
2019-02-04T15:08:15.794Z,101955.03
2019-02-04T15:11:30.219Z,101964.15
2019-02-04T15:14:33.039Z,101967.12
2019-02-04T15:17:10.874Z,101969.30
2019-02-04T15:20:10.785Z,101977.66
2019-02-04T15:23:00.008Z,101981.02
2019-02-04T15:26:31.402Z,101982.61
2019-02-04T15:29:29.327Z,101989.13
2019-02-04T15:32:29.609Z,101999.58
2019-02-04T15:35:37.144Z,101993.87
2019-02-04T15:38:46.534Z,102007.80
2019-02-04T15:41:27.956Z,102016.46
2019-02-04T15:44:37.256Z,102017.88
2019-02-04T15:47:11.102Z,102025.64
2019-02-04T15:50:15.701Z,102027.32
2019-02-04T15:52:23.239Z,102022.41
2019-02-04T15:54:30.861Z,102039.91
2019-02-04T15:56:38.283Z,102040.25
2019-02-04T15:58:45.564Z,102044.86
2019-02-04T16:00:52.680Z,102049.22
2019-02-04T16:02:59.740Z,102059.42
2019-02-04T16:05:08.198Z,102065.33
2019-02-04T16:07:16.216Z,102062.30
2019-02-04T16:09:23.523Z,102069.75
2019-02-04T16:11:30.806Z,102068.34
2019-02-04T16:13:37.886Z,102076.56
2019-02-04T16:15:45.072Z,102077.77
2019-02-04T16:17:52.332Z,102077.83
2019-02-04T16:19:59.800Z,102075.66
2019-02-04T16:22:07.039Z,102077.86
2019-02-04T16:24:14.339Z,102088.16
2019-02-04T16:26:21.690Z,102081.81
2019-02-04T16:28:29.232Z,102083.80
2019-02-04T16:30:36.462Z,102083.02
2019-02-04T16:32:44.190Z,102092.55
2019-02-04T16:34:51.896Z,102091.42
2019-02-04T16:36:59.179Z,102102.81
2019-02-04T16:39:10.986Z,102102.84
2019-02-04T16:41:18.187Z,102102.91
2019-02-04T16:43:25.499Z,102110.56
2019-02-04T16:45:32.615Z,102118.19
2019-02-04T16:47:39.857Z,102116.42
2019-02-04T16:49:47.386Z,102119.09
2019-02-04T16:51:54.866Z,102119.06
2019-02-04T16:54:03.092Z,102128.58
2019-02-04T16:56:11.715Z,102128.68
2019-02-04T16:58:19.816Z,102136.54
2019-02-04T17:00:32.093Z,102129.71
2019-02-04T17:02:39.425Z,102133.64
2019-02-04T17:04:46.953Z,102133.38
2019-02-04T17:06:54.145Z,102140.94
2019-02-04T17:09:02.321Z,102138.77
2019-02-04T17:11:09.765Z,102141.37
2019-02-04T17:13:16.999Z,102142.56
2019-02-04T17:15:25.699Z,102135.61
2019-02-04T17:17:33.267Z,102139.57
2019-02-04T17:19:40.857Z,102132.44
2019-02-04T17:21:48.219Z,102135.67
2019-02-04T17:23:55.367Z,102139.03
2019-02-04T17:26:02.606Z,102148.52
2019-02-04T17:28:09.864Z,102140.37
2019-02-04T17:30:20.458Z,102144.27
2019-02-04T17:32:27.776Z,102144.27
2019-02-04T17:34:35.470Z,102145.82
2019-02-04T17:36:42.886Z,102153.31
2019-02-04T17:38:50.018Z,102151.12
2019-02-04T17:40:57.291Z,102163.23
2019-02-04T17:43:05.121Z,102161.76
2019-02-04T17:45:13.634Z,102160.97
2019-02-04T17:47:20.807Z,102155.45
2019-02-04T17:49:28.223Z,102149.68
2019-02-04T17:51:35.763Z,102164.75
2019-02-04T17:53:42.949Z,102164.79
2019-02-04T17:55:50.121Z,102160.64
2019-02-04T17:57:57.209Z,102168.65
2019-02-04T18:00:06.064Z,102175.64
2019-02-04T18:02:13.677Z,102169.27
2019-02-04T18:04:20.795Z,102178.75
2019-02-04T18:06:27.858Z,102174.34
2019-02-04T18:08:35.036Z,102166.30
2019-02-04T18:10:42.200Z,102167.31
2019-02-04T18:12:49.496Z,102173.48
2019-02-04T18:14:56.678Z,102164.11
2019-02-04T18:17:04.360Z,102166.34
2019-02-04T18:19:11.676Z,102166.16
2019-02-04T18:21:18.923Z,102162.63
2019-02-04T18:23:26.222Z,102158.08
2019-02-04T18:25:33.792Z,102152.42
2019-02-04T18:27:41.044Z,102155.95
2019-02-04T18:29:48.342Z,102146.47
2019-02-04T18:31:55.952Z,102146.51
2019-02-04T18:34:03.109Z,102148.98
2019-02-04T18:36:10.414Z,102154.14
2019-02-04T18:38:17.559Z,102161.11
2019-02-04T18:40:25.224Z,102165.07
2019-02-04T18:42:32.973Z,102161.44
2019-02-04T18:44:40.137Z,102159.27
2019-02-04T18:46:47.379Z,102169.16
2019-02-04T18:48:54.658Z,102163.20
2019-02-04T18:51:01.916Z,102173.44
2019-02-04T18:53:09.296Z,102156.67
2019-02-04T18:55:20.001Z,102168.89
2019-02-04T18:57:27.264Z,102180.83
2019-02-04T18:59:34.545Z,102177.84
2019-02-04T19:01:42.016Z,102176.68
2019-02-04T19:03:50.465Z,102172.16
2019-02-04T19:05:57.903Z,102175.27
2019-02-04T19:08:05.184Z,102175.98
2019-02-04T19:10:14.649Z,102170.66
2019-02-04T19:12:21.899Z,102173.61
2019-02-04T19:14:29.034Z,102167.02
2019-02-04T19:16:36.213Z,102171.48
2019-02-04T19:18:43.410Z,102162.22
2019-02-04T19:20:50.739Z,102170.51
2019-02-04T19:22:58.950Z,102171.60
2019-02-04T19:25:07.578Z,102170.91
2019-02-04T19:27:14.783Z,102172.98
2019-02-04T19:29:22.265Z,102170.91
2019-02-04T19:31:32.064Z,102178.26
2019-02-04T19:33:39.763Z,102177.47
2019-02-04T19:35:47.147Z,102167.29
2019-02-04T19:37:54.362Z,102167.72
2019-02-04T19:40:01.610Z,102165.13
2019-02-04T19:42:09.329Z,102175.03
2019-02-04T19:44:16.768Z,102172.91
2019-02-04T19:46:25.829Z,102164.80
2019-02-04T19:48:33.161Z,102162.49
2019-02-04T19:50:40.507Z,102161.23
2019-02-04T19:52:47.760Z,102154.83
2019-02-04T19:54:55.037Z,102154.03
2019-02-04T19:57:02.545Z,102146.32
2019-02-04T19:59:10.042Z,102144.84
2019-02-04T20:01:18.357Z,102154.25
2019-02-04T20:03:25.816Z,102161.42
2019-02-04T20:05:33.492Z,102174.76
2019-02-04T20:07:41.117Z,102171.89
2019-02-04T20:09:49.019Z,102176.61
2019-02-04T20:11:57.036Z,102171.45
2019-02-04T20:14:06.544Z,102172.25
2019-02-04T20:16:17.551Z,102181.88
2019-02-04T20:18:25.378Z,102184.27
2019-02-04T20:20:32.906Z,102183.05
2019-02-04T20:22:40.605Z,102190.37
2019-02-04T20:24:48.254Z,102192.53
2019-02-04T20:26:55.654Z,102185.89
2019-02-04T20:29:03.079Z,102200.08
2019-02-04T20:31:11.001Z,102203.50
2019-02-04T20:33:18.267Z,102193.71
2019-02-04T20:35:25.603Z,102203.39
2019-02-04T20:37:33.522Z,102204.88
2019-02-04T20:39:41.364Z,102206.84
2019-02-04T20:41:48.940Z,102217.13
2019-02-04T20:43:56.844Z,102214.97
2019-02-04T20:46:04.168Z,102225.12
2019-02-04T20:48:14.638Z,102216.30
2019-02-04T20:50:28.287Z,102214.62
2019-02-04T20:52:35.592Z,102221.92
2019-02-04T20:54:44.975Z,102222.83
2019-02-04T20:56:52.066Z,102222.01
2019-02-04T20:58:59.407Z,102218.32
2019-02-04T21:01:07.548Z,102226.75
2019-02-04T21:03:14.852Z,102225.06
2019-02-04T21:05:22.424Z,102225.91
2019-02-04T21:07:30.268Z,102224.09
2019-02-04T21:09:37.573Z,102228.80
2019-02-04T21:11:44.861Z,102228.58
2019-02-04T21:13:52.236Z,102229.41
2019-02-04T21:15:59.584Z,102229.09
2019-02-04T21:18:06.933Z,102233.30
2019-02-04T21:20:17.809Z,102235.11
2019-02-04T21:22:30.539Z,102245.14
2019-02-04T21:24:37.662Z,102250.37
2019-02-04T21:27:02.833Z,102242.72
2019-02-04T21:29:09.981Z,102240.08
2019-02-04T21:31:17.145Z,102243.50
2019-02-04T21:33:24.377Z,102247.98
2019-02-04T21:35:31.965Z,102238.48
2019-02-04T21:37:39.310Z,102246.53
2019-02-04T21:39:46.488Z,102242.85
2019-02-04T21:41:53.782Z,102247.83
2019-02-04T21:44:00.867Z,102254.79
2019-02-04T21:46:08.206Z,102253.23
2019-02-04T21:48:15.532Z,102253.28
2019-02-04T21:50:24.752Z,102258.73
2019-02-04T21:52:32.283Z,102254.66
2019-02-04T21:54:39.395Z,102254.23
2019-02-04T21:56:46.666Z,102255.14
2019-02-04T21:58:54.139Z,102248.35
2019-02-04T22:01:01.639Z,102250.12
2019-02-04T22:03:09.110Z,102237.06
2019-02-04T22:05:17.938Z,102239.34
2019-02-04T22:07:25.112Z,102236.36
2019-02-04T22:09:32.451Z,102241.47
2019-02-04T22:11:40.284Z,102239.87
2019-02-04T22:13:47.719Z,102239.05
2019-02-04T22:15:54.835Z,102234.07
2019-02-04T22:18:02.109Z,102242.77
2019-02-04T22:20:10.324Z,102234.77
2019-02-04T22:22:17.617Z,102243.20
2019-02-04T22:24:24.933Z,102245.10
2019-02-04T22:26:32.189Z,102242.98
2019-02-04T22:28:39.549Z,102245.02
2019-02-04T22:30:46.669Z,102245.48
2019-02-04T22:32:53.926Z,102245.84
2019-02-04T22:35:01.062Z,102244.23
2019-02-04T22:37:08.203Z,102255.00
2019-02-04T22:39:15.489Z,102246.23
2019-02-04T22:41:22.727Z,102249.20
2019-02-04T22:43:29.827Z,102241.38
2019-02-04T22:45:36.958Z,102245.83
2019-02-04T22:47:44.295Z,102247.30
2019-02-04T22:49:51.467Z,102247.99
2019-02-04T22:51:58.637Z,102237.36
2019-02-04T22:54:05.784Z,102233.34
2019-02-04T22:56:13.040Z,102231.39
2019-02-04T22:58:20.657Z,102227.41
2019-02-04T23:00:50.260Z,102233.89
2019-02-04T23:02:57.620Z,102235.19
2019-02-04T23:05:04.989Z,102236.83
2019-02-04T23:07:12.465Z,102229.05
2019-02-04T23:09:19.554Z,102225.59
2019-02-04T23:11:26.685Z,102228.27
2019-02-04T23:13:34.286Z,102222.95
2019-02-04T23:15:41.713Z,102223.81
2019-02-04T23:17:49.586Z,102226.45
2019-02-04T23:19:57.114Z,102223.42
2019-02-04T23:22:04.628Z,102219.38
2019-02-04T23:24:12.137Z,102217.89
2019-02-04T23:26:19.211Z,102220.41
2019-02-04T23:28:26.322Z,102218.12
2019-02-04T23:30:33.707Z,102217.00
2019-02-04T23:32:41.262Z,102209.94
2019-02-04T23:34:48.371Z,102214.02
2019-02-04T23:36:55.897Z,102217.94
2019-02-04T23:39:04.152Z,102214.73
2019-02-04T23:41:11.276Z,102210.16
2019-02-04T23:43:18.423Z,102216.00
2019-02-04T23:45:25.661Z,102218.67
2019-02-04T23:47:32.747Z,102212.20
2019-02-04T23:49:40.040Z,102224.20
2019-02-04T23:51:47.530Z,102209.30
2019-02-04T23:53:54.925Z,102211.66
2019-02-04T23:56:02.043Z,102211.67
2019-02-04T23:58:09.095Z,102208.16
